sensor_id;sensor_type;location;lat;lon;timestamp;temperature;humidity
52323;DHT22;38263;52.920;6.238;2022-08-19T00:01:49;15.80;99.90
52323;DHT22;38263;52.920;6.238;2022-08-19T00:04:17;15.90;99.90
52323;DHT22;38263;52.920;6.238;2022-08-19T00:06:44;15.80;99.90
52323;DHT22;38263;52.920;6.238;2022-08-19T00:09:13;15.60;99.90
52323;DHT22;38263;52.920;6.238;2022-08-19T00:11:40;15.80;99.90
52323;DHT22;38263;52.920;6.238;2022-08-19T00:14:07;15.80;99.90
52323;DHT22;38263;52.920;6.238;2022-08-19T00:16:36;15.60;99.90
52323;DHT22;38263;52.920;6.238;2022-08-19T00:19:03;15.90;99.90
52323;DHT22;38263;52.920;6.238;2022-08-19T00:21:28;15.70;99.90
52323;DHT22;38263;52.920;6.238;2022-08-19T00:23:54;15.80;99.90
52323;DHT22;38263;52.920;6.238;2022-08-19T00:26:22;15.90;99.90
52323;DHT22;38263;52.920;6.238;2022-08-19T00:28:48;15.90;99.90
52323;DHT22;38263;52.920;6.238;2022-08-19T00:31:13;15.70;99.90
52323;DHT22;38263;52.920;6.238;2022-08-19T00:33:40;15.70;99.90
52323;DHT22;38263;52.920;6.238;2022-08-19T00:36:08;15.30;99.90
52323;DHT22;38263;52.920;6.238;2022-08-19T00:38:35;15.20;99.90
52323;DHT22;38263;52.920;6.238;2022-08-19T00:41:01;15.20;99.90
52323;DHT22;38263;52.920;6.238;2022-08-19T00:43:27;15.40;99.90
52323;DHT22;38263;52.920;6.238;2022-08-19T00:45:54;15.30;99.90
52323;DHT22;38263;52.920;6.238;2022-08-19T00:48:20;15.40;99.90
52323;DHT22;38263;52.920;6.238;2022-08-19T00:50:48;15.20;99.90
52323;DHT22;38263;52.920;6.238;2022-08-19T00:53:16;15.20;99.90
52323;DHT22;38263;52.920;6.238;2022-08-19T00:55:46;15.30;99.90
52323;DHT22;38263;52.920;6.238;2022-08-19T00:58:16;15.10;99.90
52323;DHT22;38263;52.920;6.238;2022-08-19T01:00:43;15.00;99.90
52323;DHT22;38263;52.920;6.238;2022-08-19T01:03:12;15.00;99.90
52323;DHT22;38263;52.920;6.238;2022-08-19T01:05:39;15.00;99.90
52323;DHT22;38263;52.920;6.238;2022-08-19T01:08:06;14.90;99.90
52323;DHT22;38263;52.920;6.238;2022-08-19T01:10:36;14.70;99.90
52323;DHT22;38263;52.920;6.238;2022-08-19T01:13:03;14.90;99.90
52323;DHT22;38263;52.920;6.238;2022-08-19T01:15:32;15.00;99.90
52323;DHT22;38263;52.920;6.238;2022-08-19T01:18:02;15.00;99.90
52323;DHT22;38263;52.920;6.238;2022-08-19T01:20:30;15.00;99.90
52323;DHT22;38263;52.920;6.238;2022-08-19T01:22:58;14.90;99.90
52323;DHT22;38263;52.920;6.238;2022-08-19T01:25:38;14.80;99.90
52323;DHT22;38263;52.920;6.238;2022-08-19T01:28:04;14.80;99.90
52323;DHT22;38263;52.920;6.238;2022-08-19T01:30:33;14.60;99.90
52323;DHT22;38263;52.920;6.238;2022-08-19T01:32:59;14.70;99.90
52323;DHT22;38263;52.920;6.238;2022-08-19T01:35:28;14.80;99.90
52323;DHT22;38263;52.920;6.238;2022-08-19T01:38:07;14.70;99.90
52323;DHT22;38263;52.920;6.238;2022-08-19T01:40:34;14.70;99.90
52323;DHT22;38263;52.920;6.238;2022-08-19T01:43:00;14.80;99.90
52323;DHT22;38263;52.920;6.238;2022-08-19T01:45:28;14.70;99.90
52323;DHT22;38263;52.920;6.238;2022-08-19T01:47:54;14.60;99.90
52323;DHT22;38263;52.920;6.238;2022-08-19T01:50:21;14.60;99.90
52323;DHT22;38263;52.920;6.238;2022-08-19T01:52:46;14.70;99.90
52323;DHT22;38263;52.920;6.238;2022-08-19T01:55:15;14.80;99.90
52323;DHT22;38263;52.920;6.238;2022-08-19T01:57:43;14.70;99.90
52323;DHT22;38263;52.920;6.238;2022-08-19T02:00:12;14.80;99.90
52323;DHT22;38263;52.920;6.238;2022-08-19T02:02:40;14.70;99.90
52323;DHT22;38263;52.920;6.238;2022-08-19T02:05:06;14.80;99.90
52323;DHT22;38263;52.920;6.238;2022-08-19T02:07:34;14.90;99.90
52323;DHT22;38263;52.920;6.238;2022-08-19T02:10:05;14.90;99.90
52323;DHT22;38263;52.920;6.238;2022-08-19T02:12:31;15.00;99.90
52323;DHT22;38263;52.920;6.238;2022-08-19T02:14:56;15.10;99.90
52323;DHT22;38263;52.920;6.238;2022-08-19T02:17:22;15.10;99.90
52323;DHT22;38263;52.920;6.238;2022-08-19T02:19:47;15.00;99.90
52323;DHT22;38263;52.920;6.238;2022-08-19T02:22:14;14.90;99.90
52323;DHT22;38263;52.920;6.238;2022-08-19T02:24:40;15.00;99.90
52323;DHT22;38263;52.920;6.238;2022-08-19T02:27:06;14.90;99.90
52323;DHT22;38263;52.920;6.238;2022-08-19T02:29:31;15.00;99.90
52323;DHT22;38263;52.920;6.238;2022-08-19T02:31:57;15.00;99.90
52323;DHT22;38263;52.920;6.238;2022-08-19T02:34:23;14.90;99.90
52323;DHT22;38263;52.920;6.238;2022-08-19T02:36:50;14.90;99.90
52323;DHT22;38263;52.920;6.238;2022-08-19T02:39:16;14.90;99.90
52323;DHT22;38263;52.920;6.238;2022-08-19T02:41:42;14.90;99.90
52323;DHT22;38263;52.920;6.238;2022-08-19T02:44:08;15.00;99.90
52323;DHT22;38263;52.920;6.238;2022-08-19T02:46:34;15.10;99.90
52323;DHT22;38263;52.920;6.238;2022-08-19T02:49:04;15.00;99.90
52323;DHT22;38263;52.920;6.238;2022-08-19T02:51:34;14.80;99.90
52323;DHT22;38263;52.920;6.238;2022-08-19T02:54:00;14.90;99.90
52323;DHT22;38263;52.920;6.238;2022-08-19T02:56:26;14.90;99.90
52323;DHT22;38263;52.920;6.238;2022-08-19T02:58:54;14.80;99.90
52323;DHT22;38263;52.920;6.238;2022-08-19T03:01:31;14.70;99.90
52323;DHT22;38263;52.920;6.238;2022-08-19T03:03:59;14.60;99.90
52323;DHT22;38263;52.920;6.238;2022-08-19T03:06:26;14.70;99.90
52323;DHT22;38263;52.920;6.238;2022-08-19T03:08:51;14.70;99.90
52323;DHT22;38263;52.920;6.238;2022-08-19T03:11:23;14.60;99.90
52323;DHT22;38263;52.920;6.238;2022-08-19T03:13:49;14.80;99.90
52323;DHT22;38263;52.920;6.238;2022-08-19T03:16:17;14.30;99.90
52323;DHT22;38263;52.920;6.238;2022-08-19T03:18:43;14.30;99.90
52323;DHT22;38263;52.920;6.238;2022-08-19T03:23:35;14.50;99.90
52323;DHT22;38263;52.920;6.238;2022-08-19T03:26:04;14.40;99.90
52323;DHT22;38263;52.920;6.238;2022-08-19T03:28:30;14.50;99.90
52323;DHT22;38263;52.920;6.238;2022-08-19T03:31:04;14.50;99.90
52323;DHT22;38263;52.920;6.238;2022-08-19T03:33:32;14.60;99.90
52323;DHT22;38263;52.920;6.238;2022-08-19T03:38:32;14.50;99.90
52323;DHT22;38263;52.920;6.238;2022-08-19T03:41:03;14.40;99.90
52323;DHT22;38263;52.920;6.238;2022-08-19T03:43:28;14.40;99.90
52323;DHT22;38263;52.920;6.238;2022-08-19T03:46:05;14.50;99.90
52323;DHT22;38263;52.920;6.238;2022-08-19T03:48:33;14.40;99.90
52323;DHT22;38263;52.920;6.238;2022-08-19T03:51:00;14.30;99.90
52323;DHT22;38263;52.920;6.238;2022-08-19T03:53:29;14.30;99.90
52323;DHT22;38263;52.920;6.238;2022-08-19T03:55:56;14.50;99.90
52323;DHT22;38263;52.920;6.238;2022-08-19T03:58:23;14.30;99.90
52323;DHT22;38263;52.920;6.238;2022-08-19T04:00:49;14.20;99.90
52323;DHT22;38263;52.920;6.238;2022-08-19T04:03:15;14.30;99.90
52323;DHT22;38263;52.920;6.238;2022-08-19T04:05:40;14.20;99.90
52323;DHT22;38263;52.920;6.238;2022-08-19T04:08:06;14.20;99.90
52323;DHT22;38263;52.920;6.238;2022-08-19T04:10:36;14.10;99.90
52323;DHT22;38263;52.920;6.238;2022-08-19T04:13:03;14.10;99.90
52323;DHT22;38263;52.920;6.238;2022-08-19T04:15:29;14.20;99.90
52323;DHT22;38263;52.920;6.238;2022-08-19T04:17:58;14.30;99.90
52323;DHT22;38263;52.920;6.238;2022-08-19T04:20:24;14.20;99.90
52323;DHT22;38263;52.920;6.238;2022-08-19T04:22:49;14.30;99.90
52323;DHT22;38263;52.920;6.238;2022-08-19T04:25:15;14.20;99.90
52323;DHT22;38263;52.920;6.238;2022-08-19T04:27:41;14.20;99.90
52323;DHT22;38263;52.920;6.238;2022-08-19T04:30:13;14.40;99.90
52323;DHT22;38263;52.920;6.238;2022-08-19T04:32:39;14.20;99.90
52323;DHT22;38263;52.920;6.238;2022-08-19T04:35:05;14.20;99.90
52323;DHT22;38263;52.920;6.238;2022-08-19T04:37:31;14.20;99.90
52323;DHT22;38263;52.920;6.238;2022-08-19T04:39:59;14.20;99.90
52323;DHT22;38263;52.920;6.238;2022-08-19T04:42:43;14.20;99.90
52323;DHT22;38263;52.920;6.238;2022-08-19T04:45:12;14.20;99.90
52323;DHT22;38263;52.920;6.238;2022-08-19T04:47:40;14.30;99.90
52323;DHT22;38263;52.920;6.238;2022-08-19T04:50:06;14.20;99.90
52323;DHT22;38263;52.920;6.238;2022-08-19T04:52:33;14.20;99.90
52323;DHT22;38263;52.920;6.238;2022-08-19T04:54:59;14.10;99.90
52323;DHT22;38263;52.920;6.238;2022-08-19T04:57:25;14.10;99.90
52323;DHT22;38263;52.920;6.238;2022-08-19T04:59:55;14.20;99.90
52323;DHT22;38263;52.920;6.238;2022-08-19T05:02:21;14.20;99.90
52323;DHT22;38263;52.920;6.238;2022-08-19T05:04:57;14.40;99.90
52323;DHT22;38263;52.920;6.238;2022-08-19T05:07:25;14.30;99.90
52323;DHT22;38263;52.920;6.238;2022-08-19T05:09:51;14.40;99.90
52323;DHT22;38263;52.920;6.238;2022-08-19T05:12:17;14.30;99.90
52323;DHT22;38263;52.920;6.238;2022-08-19T05:14:43;14.40;99.90
52323;DHT22;38263;52.920;6.238;2022-08-19T05:17:11;14.40;99.90
52323;DHT22;38263;52.920;6.238;2022-08-19T05:19:36;14.70;99.90
52323;DHT22;38263;52.920;6.238;2022-08-19T05:22:20;14.50;99.90
52323;DHT22;38263;52.920;6.238;2022-08-19T05:25:10;14.80;99.90
52323;DHT22;38263;52.920;6.238;2022-08-19T05:27:37;15.00;99.90
52323;DHT22;38263;52.920;6.238;2022-08-19T05:30:03;14.80;99.90
52323;DHT22;38263;52.920;6.238;2022-08-19T05:32:30;14.80;99.90
52323;DHT22;38263;52.920;6.238;2022-08-19T05:34:56;14.80;99.90
52323;DHT22;38263;52.920;6.238;2022-08-19T05:37:21;14.80;99.90
52323;DHT22;38263;52.920;6.238;2022-08-19T05:42:14;14.90;99.90
52323;DHT22;38263;52.920;6.238;2022-08-19T05:44:42;15.20;99.90
52323;DHT22;38263;52.920;6.238;2022-08-19T05:47:10;15.30;99.90
52323;DHT22;38263;52.920;6.238;2022-08-19T05:49:37;15.40;99.90
52323;DHT22;38263;52.920;6.238;2022-08-19T05:52:11;15.50;99.90
52323;DHT22;38263;52.920;6.238;2022-08-19T05:54:39;15.60;99.90
52323;DHT22;38263;52.920;6.238;2022-08-19T05:57:07;15.60;99.90
52323;DHT22;38263;52.920;6.238;2022-08-19T06:02:01;15.90;99.90
52323;DHT22;38263;52.920;6.238;2022-08-19T06:04:27;15.90;99.90
52323;DHT22;38263;52.920;6.238;2022-08-19T06:06:53;16.20;99.90
52323;DHT22;38263;52.920;6.238;2022-08-19T06:09:20;16.70;99.90
52323;DHT22;38263;52.920;6.238;2022-08-19T06:11:55;16.80;99.90
52323;DHT22;38263;52.920;6.238;2022-08-19T06:14:34;17.70;99.90
52323;DHT22;38263;52.920;6.238;2022-08-19T06:17:01;19.00;99.90
52323;DHT22;38263;52.920;6.238;2022-08-19T06:19:29;19.60;99.90
52323;DHT22;38263;52.920;6.238;2022-08-19T06:21:56;21.00;99.90
52323;DHT22;38263;52.920;6.238;2022-08-19T06:24:25;21.60;99.90
52323;DHT22;38263;52.920;6.238;2022-08-19T06:26:52;22.30;99.90
52323;DHT22;38263;52.920;6.238;2022-08-19T06:29:21;22.60;99.90
52323;DHT22;38263;52.920;6.238;2022-08-19T06:31:49;23.00;99.90
52323;DHT22;38263;52.920;6.238;2022-08-19T06:34:15;23.40;99.90
52323;DHT22;38263;52.920;6.238;2022-08-19T06:36:44;23.80;99.90
52323;DHT22;38263;52.920;6.238;2022-08-19T06:39:24;24.30;99.90
52323;DHT22;38263;52.920;6.238;2022-08-19T06:41:54;24.70;99.90
52323;DHT22;38263;52.920;6.238;2022-08-19T06:44:22;25.10;99.90
52323;DHT22;38263;52.920;6.238;2022-08-19T06:46:48;25.80;99.90
52323;DHT22;38263;52.920;6.238;2022-08-19T06:49:15;25.90;99.90
52323;DHT22;38263;52.920;6.238;2022-08-19T06:51:43;26.10;99.90
52323;DHT22;38263;52.920;6.238;2022-08-19T06:54:09;26.10;99.90
52323;DHT22;38263;52.920;6.238;2022-08-19T06:56:35;26.40;99.90
52323;DHT22;38263;52.920;6.238;2022-08-19T06:59:08;26.40;99.90
52323;DHT22;38263;52.920;6.238;2022-08-19T07:01:36;26.70;99.90
52323;DHT22;38263;52.920;6.238;2022-08-19T07:04:03;26.80;99.90
52323;DHT22;38263;52.920;6.238;2022-08-19T07:06:29;26.90;99.90
52323;DHT22;38263;52.920;6.238;2022-08-19T07:08:57;27.10;99.90
52323;DHT22;38263;52.920;6.238;2022-08-19T07:11:23;27.20;99.90
52323;DHT22;38263;52.920;6.238;2022-08-19T07:13:50;27.10;99.90
52323;DHT22;38263;52.920;6.238;2022-08-19T07:16:18;26.60;99.90
52323;DHT22;38263;52.920;6.238;2022-08-19T07:18:48;26.90;99.90
52323;DHT22;38263;52.920;6.238;2022-08-19T07:21:21;25.20;99.90
52323;DHT22;38263;52.920;6.238;2022-08-19T07:23:48;24.10;99.90
52323;DHT22;38263;52.920;6.238;2022-08-19T07:26:25;23.50;99.90
52323;DHT22;38263;52.920;6.238;2022-08-19T07:28:51;23.10;99.90
52323;DHT22;38263;52.920;6.238;2022-08-19T07:31:19;22.90;99.90
52323;DHT22;38263;52.920;6.238;2022-08-19T07:33:47;22.30;99.90
52323;DHT22;38263;52.920;6.238;2022-08-19T07:36:15;22.30;99.90
52323;DHT22;38263;52.920;6.238;2022-08-19T07:38:44;22.10;99.90
52323;DHT22;38263;52.920;6.238;2022-08-19T07:41:12;22.00;99.90
52323;DHT22;38263;52.920;6.238;2022-08-19T07:43:39;21.70;99.90
52323;DHT22;38263;52.920;6.238;2022-08-19T07:46:06;22.50;99.90
52323;DHT22;38263;52.920;6.238;2022-08-19T07:48:32;21.50;99.90
52323;DHT22;38263;52.920;6.238;2022-08-19T07:51:01;21.50;99.90
52323;DHT22;38263;52.920;6.238;2022-08-19T07:53:29;21.20;99.90
52323;DHT22;38263;52.920;6.238;2022-08-19T07:55:55;21.10;99.90
52323;DHT22;38263;52.920;6.238;2022-08-19T07:58:24;21.30;99.90
52323;DHT22;38263;52.920;6.238;2022-08-19T08:00:50;21.20;99.90
52323;DHT22;38263;52.920;6.238;2022-08-19T08:03:18;21.10;99.90
52323;DHT22;38263;52.920;6.238;2022-08-19T08:05:45;21.30;99.90
52323;DHT22;38263;52.920;6.238;2022-08-19T08:08:29;21.60;99.90
52323;DHT22;38263;52.920;6.238;2022-08-19T08:11:10;21.30;99.90
52323;DHT22;38263;52.920;6.238;2022-08-19T08:13:36;21.50;99.90
52323;DHT22;38263;52.920;6.238;2022-08-19T08:16:02;21.50;99.90
52323;DHT22;38263;52.920;6.238;2022-08-19T08:18:28;21.50;99.90
52323;DHT22;38263;52.920;6.238;2022-08-19T08:20:55;21.60;99.90
52323;DHT22;38263;52.920;6.238;2022-08-19T08:23:20;21.70;99.90
52323;DHT22;38263;52.920;6.238;2022-08-19T08:25:55;21.70;99.90
52323;DHT22;38263;52.920;6.238;2022-08-19T08:28:22;21.70;99.90
52323;DHT22;38263;52.920;6.238;2022-08-19T08:30:49;21.60;99.90
52323;DHT22;38263;52.920;6.238;2022-08-19T08:33:20;21.80;99.90
52323;DHT22;38263;52.920;6.238;2022-08-19T08:35:46;22.30;99.90
52323;DHT22;38263;52.920;6.238;2022-08-19T08:38:13;22.20;99.90
52323;DHT22;38263;52.920;6.238;2022-08-19T08:40:45;22.00;99.90
52323;DHT22;38263;52.920;6.238;2022-08-19T08:43:24;22.30;99.90
52323;DHT22;38263;52.920;6.238;2022-08-19T08:46:26;22.10;99.90
52323;DHT22;38263;52.920;6.238;2022-08-19T08:49:25;22.20;99.90
52323;DHT22;38263;52.920;6.238;2022-08-19T08:52:18;22.50;99.90
52323;DHT22;38263;52.920;6.238;2022-08-19T08:54:49;22.50;99.90
52323;DHT22;38263;52.920;6.238;2022-08-19T08:57:24;22.50;99.90
52323;DHT22;38263;52.920;6.238;2022-08-19T08:59:52;22.60;99.90
52323;DHT22;38263;52.920;6.238;2022-08-19T09:02:20;22.70;99.90
52323;DHT22;38263;52.920;6.238;2022-08-19T09:04:46;22.70;99.90
52323;DHT22;38263;52.920;6.238;2022-08-19T09:10:28;22.90;99.90
52323;DHT22;38263;52.920;6.238;2022-08-19T09:13:20;23.00;99.90
52323;DHT22;38263;52.920;6.238;2022-08-19T09:16:26;23.00;99.90
52323;DHT22;38263;52.920;6.238;2022-08-19T09:18:57;23.40;99.90
52323;DHT22;38263;52.920;6.238;2022-08-19T09:21:24;23.20;99.90
52323;DHT22;38263;52.920;6.238;2022-08-19T09:23:51;23.80;99.90
52323;DHT22;38263;52.920;6.238;2022-08-19T09:26:21;23.30;99.90
52323;DHT22;38263;52.920;6.238;2022-08-19T09:28:48;23.60;99.90
52323;DHT22;38263;52.920;6.238;2022-08-19T09:31:18;23.70;99.90
52323;DHT22;38263;52.920;6.238;2022-08-19T09:33:44;23.80;99.90
52323;DHT22;38263;52.920;6.238;2022-08-19T09:36:12;23.80;99.90
52323;DHT22;38263;52.920;6.238;2022-08-19T09:38:40;24.00;99.90
52323;DHT22;38263;52.920;6.238;2022-08-19T09:41:08;23.90;99.90
52323;DHT22;38263;52.920;6.238;2022-08-19T09:43:35;24.20;99.90
52323;DHT22;38263;52.920;6.238;2022-08-19T09:46:03;24.60;99.90
52323;DHT22;38263;52.920;6.238;2022-08-19T09:48:31;23.90;99.90
52323;DHT22;38263;52.920;6.238;2022-08-19T09:51:06;24.30;99.90
52323;DHT22;38263;52.920;6.238;2022-08-19T09:53:34;24.40;99.90
52323;DHT22;38263;52.920;6.238;2022-08-19T09:55:59;24.30;99.90
52323;DHT22;38263;52.920;6.238;2022-08-19T09:58:25;25.80;99.90
52323;DHT22;38263;52.920;6.238;2022-08-19T10:00:54;24.40;99.90
52323;DHT22;38263;52.920;6.238;2022-08-19T10:03:20;24.50;99.90
52323;DHT22;38263;52.920;6.238;2022-08-19T10:05:47;24.60;99.90
52323;DHT22;38263;52.920;6.238;2022-08-19T10:08:17;24.70;99.90
52323;DHT22;38263;52.920;6.238;2022-08-19T10:10:44;24.60;99.90
52323;DHT22;38263;52.920;6.238;2022-08-19T10:13:10;24.70;99.90
52323;DHT22;38263;52.920;6.238;2022-08-19T10:15:36;24.90;99.90
52323;DHT22;38263;52.920;6.238;2022-08-19T10:18:05;24.80;99.90
52323;DHT22;38263;52.920;6.238;2022-08-19T10:20:30;24.90;99.90
52323;DHT22;38263;52.920;6.238;2022-08-19T10:22:56;24.90;99.90
52323;DHT22;38263;52.920;6.238;2022-08-19T10:25:25;26.20;99.90
52323;DHT22;38263;52.920;6.238;2022-08-19T10:27:52;24.90;99.90
52323;DHT22;38263;52.920;6.238;2022-08-19T10:30:18;24.80;99.90
52323;DHT22;38263;52.920;6.238;2022-08-19T10:32:44;24.80;99.90
52323;DHT22;38263;52.920;6.238;2022-08-19T10:35:12;24.90;99.90
52323;DHT22;38263;52.920;6.238;2022-08-19T10:37:38;24.70;99.90
52323;DHT22;38263;52.920;6.238;2022-08-19T10:40:08;25.00;99.90
52323;DHT22;38263;52.920;6.238;2022-08-19T10:42:36;24.90;99.90
52323;DHT22;38263;52.920;6.238;2022-08-19T10:45:02;24.90;99.90
52323;DHT22;38263;52.920;6.238;2022-08-19T10:47:28;24.90;99.90
52323;DHT22;38263;52.920;6.238;2022-08-19T10:49:54;25.10;99.90
52323;DHT22;38263;52.920;6.238;2022-08-19T10:52:44;27.20;99.90
52323;DHT22;38263;52.920;6.238;2022-08-19T10:55:10;25.20;99.90
52323;DHT22;38263;52.920;6.238;2022-08-19T10:57:54;26.10;99.90
52323;DHT22;38263;52.920;6.238;2022-08-19T11:00:21;25.10;99.90
52323;DHT22;38263;52.920;6.238;2022-08-19T11:02:47;25.00;99.90
52323;DHT22;38263;52.920;6.238;2022-08-19T11:05:13;26.30;99.90
52323;DHT22;38263;52.920;6.238;2022-08-19T11:07:40;24.90;99.90
52323;DHT22;38263;52.920;6.238;2022-08-19T11:10:06;26.30;99.90
52323;DHT22;38263;52.920;6.238;2022-08-19T11:12:33;24.90;99.90
52323;DHT22;38263;52.920;6.238;2022-08-19T11:14:59;25.00;99.90
52323;DHT22;38263;52.920;6.238;2022-08-19T11:17:25;24.80;99.90
52323;DHT22;38263;52.920;6.238;2022-08-19T11:19:50;25.70;99.90
52323;DHT22;38263;52.920;6.238;2022-08-19T11:22:16;26.30;99.90
52323;DHT22;38263;52.920;6.238;2022-08-19T11:24:42;26.50;99.90
52323;DHT22;38263;52.920;6.238;2022-08-19T11:27:09;24.80;99.90
52323;DHT22;38263;52.920;6.238;2022-08-19T11:29:37;24.50;99.90
52323;DHT22;38263;52.920;6.238;2022-08-19T11:32:06;25.10;99.90
52323;DHT22;38263;52.920;6.238;2022-08-19T11:34:32;25.00;99.90
52323;DHT22;38263;52.920;6.238;2022-08-19T11:36:58;25.20;99.90
52323;DHT22;38263;52.920;6.238;2022-08-19T11:39:26;25.30;99.90
52323;DHT22;38263;52.920;6.238;2022-08-19T11:41:52;25.10;99.90
52323;DHT22;38263;52.920;6.238;2022-08-19T11:44:17;26.40;99.90
52323;DHT22;38263;52.920;6.238;2022-08-19T11:46:44;25.10;99.90
52323;DHT22;38263;52.920;6.238;2022-08-19T11:49:13;27.00;99.90
52323;DHT22;38263;52.920;6.238;2022-08-19T11:51:39;24.90;99.90
52323;DHT22;38263;52.920;6.238;2022-08-19T11:54:07;25.00;99.90
52323;DHT22;38263;52.920;6.238;2022-08-19T11:56:33;24.90;99.90
52323;DHT22;38263;52.920;6.238;2022-08-19T11:59:01;26.30;99.90
52323;DHT22;38263;52.920;6.238;2022-08-19T12:01:27;25.10;99.90
52323;DHT22;38263;52.920;6.238;2022-08-19T12:03:54;26.20;99.90
52323;DHT22;38263;52.920;6.238;2022-08-19T12:06:25;25.50;99.90
52323;DHT22;38263;52.920;6.238;2022-08-19T12:08:56;26.20;99.90
52323;DHT22;38263;52.920;6.238;2022-08-19T12:11:23;27.40;99.90
52323;DHT22;38263;52.920;6.238;2022-08-19T12:13:49;25.20;99.90
52323;DHT22;38263;52.920;6.238;2022-08-19T12:16:18;25.30;99.90
52323;DHT22;38263;52.920;6.238;2022-08-19T12:18:44;25.30;99.90
52323;DHT22;38263;52.920;6.238;2022-08-19T12:21:13;25.60;99.90
52323;DHT22;38263;52.920;6.238;2022-08-19T12:23:40;25.30;99.90
52323;DHT22;38263;52.920;6.238;2022-08-19T12:26:06;25.70;99.90
52323;DHT22;38263;52.920;6.238;2022-08-19T12:28:32;25.70;99.90
52323;DHT22;38263;52.920;6.238;2022-08-19T12:30:58;25.90;99.90
52323;DHT22;38263;52.920;6.238;2022-08-19T12:33:23;25.30;99.90
52323;DHT22;38263;52.920;6.238;2022-08-19T12:35:52;25.20;99.90
52323;DHT22;38263;52.920;6.238;2022-08-19T12:38:18;26.50;99.90
52323;DHT22;38263;52.920;6.238;2022-08-19T12:40:48;26.10;99.90
52323;DHT22;38263;52.920;6.238;2022-08-19T12:43:13;26.10;99.90
52323;DHT22;38263;52.920;6.238;2022-08-19T12:45:41;25.30;99.90
52323;DHT22;38263;52.920;6.238;2022-08-19T12:48:08;25.40;99.90
52323;DHT22;38263;52.920;6.238;2022-08-19T12:50:33;25.90;99.90
52323;DHT22;38263;52.920;6.238;2022-08-19T12:52:59;26.90;99.90
52323;DHT22;38263;52.920;6.238;2022-08-19T12:55:24;25.70;99.90
52323;DHT22;38263;52.920;6.238;2022-08-19T12:57:50;25.70;99.90
52323;DHT22;38263;52.920;6.238;2022-08-19T13:00:19;27.20;99.90
52323;DHT22;38263;52.920;6.238;2022-08-19T13:02:48;25.80;99.90
52323;DHT22;38263;52.920;6.238;2022-08-19T13:05:21;25.70;99.90
52323;DHT22;38263;52.920;6.238;2022-08-19T13:07:49;25.50;99.90
52323;DHT22;38263;52.920;6.238;2022-08-19T13:10:17;27.00;99.90
52323;DHT22;38263;52.920;6.238;2022-08-19T13:12:47;25.30;99.90
52323;DHT22;38263;52.920;6.238;2022-08-19T13:15:14;25.30;99.90
52323;DHT22;38263;52.920;6.238;2022-08-19T13:17:40;25.40;99.90
52323;DHT22;38263;52.920;6.238;2022-08-19T13:20:08;25.50;99.90
52323;DHT22;38263;52.920;6.238;2022-08-19T13:22:34;25.60;99.90
52323;DHT22;38263;52.920;6.238;2022-08-19T13:25:04;26.50;99.90
52323;DHT22;38263;52.920;6.238;2022-08-19T13:27:30;25.30;99.90
52323;DHT22;38263;52.920;6.238;2022-08-19T13:29:56;26.00;99.90
52323;DHT22;38263;52.920;6.238;2022-08-19T13:32:40;25.30;99.90
52323;DHT22;38263;52.920;6.238;2022-08-19T13:35:24;25.00;99.90
52323;DHT22;38263;52.920;6.238;2022-08-19T13:37:49;26.20;99.90
52323;DHT22;38263;52.920;6.238;2022-08-19T13:40:20;25.90;99.90
52323;DHT22;38263;52.920;6.238;2022-08-19T13:42:51;24.80;99.90
52323;DHT22;38263;52.920;6.238;2022-08-19T13:45:19;24.80;99.90
52323;DHT22;38263;52.920;6.238;2022-08-19T13:47:46;24.70;99.90
52323;DHT22;38263;52.920;6.238;2022-08-19T13:50:16;26.10;99.90
52323;DHT22;38263;52.920;6.238;2022-08-19T13:52:42;26.20;99.90
52323;DHT22;38263;52.920;6.238;2022-08-19T13:55:10;24.20;99.90
52323;DHT22;38263;52.920;6.238;2022-08-19T13:57:36;24.10;99.90
52323;DHT22;38263;52.920;6.238;2022-08-19T14:00:08;25.20;99.90
52323;DHT22;38263;52.920;6.238;2022-08-19T14:02:38;24.10;99.90
52323;DHT22;38263;52.920;6.238;2022-08-19T14:05:11;24.70;99.90
52323;DHT22;38263;52.920;6.238;2022-08-19T14:07:37;24.30;99.90
52323;DHT22;38263;52.920;6.238;2022-08-19T14:10:05;23.70;99.90
52323;DHT22;38263;52.920;6.238;2022-08-19T14:12:31;24.30;99.90
52323;DHT22;38263;52.920;6.238;2022-08-19T14:14:58;24.10;99.90
52323;DHT22;38263;52.920;6.238;2022-08-19T14:17:23;24.40;99.90
52323;DHT22;38263;52.920;6.238;2022-08-19T14:19:57;23.80;99.90
52323;DHT22;38263;52.920;6.238;2022-08-19T14:22:23;24.50;99.90
52323;DHT22;38263;52.920;6.238;2022-08-19T14:24:48;25.20;99.90
52323;DHT22;38263;52.920;6.238;2022-08-19T14:27:15;25.90;99.90
52323;DHT22;38263;52.920;6.238;2022-08-19T14:29:41;26.10;99.90
52323;DHT22;38263;52.920;6.238;2022-08-19T14:32:07;24.10;99.90
52323;DHT22;38263;52.920;6.238;2022-08-19T14:34:33;24.40;99.90
52323;DHT22;38263;52.920;6.238;2022-08-19T14:36:59;25.70;99.90
52323;DHT22;38263;52.920;6.238;2022-08-19T14:39:25;24.20;99.90
52323;DHT22;38263;52.920;6.238;2022-08-19T14:41:51;24.00;99.90
52323;DHT22;38263;52.920;6.238;2022-08-19T14:44:16;24.50;99.90
52323;DHT22;38263;52.920;6.238;2022-08-19T14:46:42;24.30;99.90
52323;DHT22;38263;52.920;6.238;2022-08-19T14:49:07;24.30;99.90
52323;DHT22;38263;52.920;6.238;2022-08-19T14:51:33;24.90;99.90
52323;DHT22;38263;52.920;6.238;2022-08-19T14:53:59;24.30;99.90
52323;DHT22;38263;52.920;6.238;2022-08-19T14:56:28;24.30;99.90
52323;DHT22;38263;52.920;6.238;2022-08-19T14:58:54;24.30;99.90
52323;DHT22;38263;52.920;6.238;2022-08-19T15:01:21;24.30;99.90
52323;DHT22;38263;52.920;6.238;2022-08-19T15:03:48;25.00;99.90
52323;DHT22;38263;52.920;6.238;2022-08-19T15:06:14;26.10;99.90
52323;DHT22;38263;52.920;6.238;2022-08-19T15:08:41;24.30;99.90
52323;DHT22;38263;52.920;6.238;2022-08-19T15:11:14;25.10;99.90
52323;DHT22;38263;52.920;6.238;2022-08-19T15:13:41;25.30;99.90
52323;DHT22;38263;52.920;6.238;2022-08-19T15:16:07;24.10;99.90
52323;DHT22;38263;52.920;6.238;2022-08-19T15:18:33;24.30;99.90
52323;DHT22;38263;52.920;6.238;2022-08-19T15:21:00;24.70;99.90
52323;DHT22;38263;52.920;6.238;2022-08-19T15:23:26;24.30;99.90
52323;DHT22;38263;52.920;6.238;2022-08-19T15:25:52;24.00;99.90
52323;DHT22;38263;52.920;6.238;2022-08-19T15:28:21;24.40;99.90
52323;DHT22;38263;52.920;6.238;2022-08-19T15:30:47;23.90;99.90
52323;DHT22;38263;52.920;6.238;2022-08-19T15:33:13;24.60;99.90
52323;DHT22;38263;52.920;6.238;2022-08-19T15:35:40;23.90;99.90
52323;DHT22;38263;52.920;6.238;2022-08-19T15:38:07;24.20;99.90
52323;DHT22;38263;52.920;6.238;2022-08-19T15:40:33;24.30;99.90
52323;DHT22;38263;52.920;6.238;2022-08-19T15:42:59;24.30;99.90
52323;DHT22;38263;52.920;6.238;2022-08-19T15:45:25;24.20;99.90
52323;DHT22;38263;52.920;6.238;2022-08-19T15:47:58;24.20;99.90
52323;DHT22;38263;52.920;6.238;2022-08-19T15:50:24;24.20;99.90